createdAt,value
2023-07-21T00:00:17.044Z,29.960000
2023-07-21T00:05:16.848Z,29.957000
2023-07-21T00:10:17.122Z,29.959000
2023-07-21T00:15:17.047Z,29.956000
2023-07-21T00:20:17.055Z,29.957000
2023-07-21T00:25:17.100Z,29.955000
2023-07-21T00:30:17.226Z,29.955000
2023-07-21T00:35:17.039Z,29.957000
2023-07-21T00:40:17.310Z,29.955000
2023-07-21T00:45:17.138Z,29.953000
2023-07-21T00:50:17.074Z,29.955000
2023-07-21T00:55:17.073Z,29.955000
2023-07-21T01:00:17.387Z,29.957000
2023-07-21T01:05:17.202Z,29.956000
2023-07-21T01:10:17.322Z,29.959000
2023-07-21T01:15:17.162Z,29.964000
2023-07-21T01:20:17.198Z,29.963000
2023-07-21T01:25:17.230Z,29.963000
2023-07-21T01:30:17.161Z,29.963000
2023-07-21T01:35:17.194Z,29.964000
2023-07-21T01:40:17.231Z,29.964000
2023-07-21T01:45:17.224Z,29.962000
2023-07-21T01:50:17.312Z,29.965000
2023-07-21T01:55:17.264Z,29.965000
2023-07-21T02:00:17.227Z,29.963000
2023-07-21T02:05:17.195Z,29.961000
2023-07-21T02:10:17.199Z,29.963000
2023-07-21T02:15:17.464Z,29.963000
2023-07-21T02:20:17.424Z,29.962000
2023-07-21T02:25:17.317Z,29.961000
2023-07-21T02:30:17.386Z,29.960000
2023-07-21T02:35:17.439Z,29.956000
2023-07-21T02:40:17.285Z,29.958000
2023-07-21T02:45:17.357Z,29.960000
2023-07-21T02:50:17.531Z,29.961000
2023-07-21T02:55:17.470Z,29.960000
2023-07-21T03:00:17.619Z,29.960000
2023-07-21T03:05:17.501Z,29.958000
2023-07-21T03:10:17.393Z,29.958000
2023-07-21T03:15:17.372Z,29.960000
2023-07-21T03:20:17.510Z,29.954000
2023-07-21T03:25:17.389Z,29.953000
2023-07-21T03:30:17.541Z,29.955000
2023-07-21T03:35:17.416Z,29.956000
2023-07-21T03:40:15.455Z,29.954000
2023-07-21T03:45:15.543Z,29.955000
2023-07-21T03:50:15.521Z,29.951000
2023-07-21T03:55:15.482Z,29.950000
2023-07-21T04:00:16.541Z,29.952000
2023-07-21T04:05:16.446Z,29.947000
2023-07-21T04:10:16.653Z,29.941000
2023-07-21T04:15:17.373Z,29.940000
2023-07-21T04:20:16.565Z,29.936000
2023-07-21T04:25:16.604Z,29.934000
2023-07-21T04:30:16.581Z,29.933000
2023-07-21T04:35:16.728Z,29.936000
2023-07-21T04:40:16.601Z,29.937000
2023-07-21T04:45:16.640Z,29.944000
2023-07-21T04:50:16.688Z,29.942000
2023-07-21T04:55:16.653Z,29.944000
2023-07-21T05:00:16.647Z,29.942000
2023-07-21T05:05:16.703Z,29.938000
2023-07-21T05:10:16.796Z,29.940000
2023-07-21T05:15:16.738Z,29.939000
2023-07-21T05:20:16.674Z,29.935000
2023-07-21T05:25:16.842Z,29.934000
2023-07-21T05:30:16.787Z,29.933000
2023-07-21T05:35:16.640Z,29.930000
2023-07-21T05:40:16.624Z,29.922000
2023-07-21T05:45:16.741Z,29.920000
2023-07-21T05:50:16.737Z,29.917000
2023-07-21T05:55:16.835Z,29.915000
2023-07-21T06:00:16.901Z,29.914000
2023-07-21T06:05:16.685Z,29.914000
2023-07-21T06:10:16.924Z,29.915000
2023-07-21T06:15:16.840Z,29.915000
2023-07-21T06:20:16.977Z,29.911000
2023-07-21T06:25:16.837Z,29.908000
2023-07-21T06:30:16.796Z,29.907000
2023-07-21T06:35:16.848Z,29.906000
2023-07-21T06:40:18.006Z,29.908000
2023-07-21T06:45:16.882Z,29.911000
2023-07-21T06:50:16.909Z,29.911000
2023-07-21T06:55:17.058Z,29.914000
2023-07-21T07:00:16.910Z,29.910000
2023-07-21T07:05:16.842Z,29.910000
2023-07-21T07:10:16.911Z,29.911000
2023-07-21T07:15:16.980Z,29.911000
2023-07-21T07:20:16.946Z,29.910000
2023-07-21T07:25:16.989Z,29.907000
2023-07-21T07:30:17.049Z,29.901000
2023-07-21T07:35:16.952Z,29.900000
2023-07-21T07:40:17.201Z,29.900000
2023-07-21T07:45:17.182Z,29.896000
2023-07-21T07:50:17.050Z,29.893000
2023-07-21T07:55:17.213Z,29.892000
2023-07-21T08:00:17.072Z,29.895000
2023-07-21T08:05:17.152Z,29.898000
2023-07-21T08:10:17.073Z,29.897000
2023-07-21T08:15:17.070Z,29.904000
2023-07-21T08:20:17.080Z,29.904000
2023-07-21T08:25:17.125Z,29.905000
2023-07-21T08:30:17.052Z,29.904000
2023-07-21T08:35:17.237Z,29.902000
2023-07-21T08:40:17.255Z,29.901000
2023-07-21T08:45:17.132Z,29.901000
2023-07-21T08:50:17.134Z,29.897000
2023-07-21T08:55:17.281Z,29.902000
2023-07-21T09:00:17.193Z,29.903000
2023-07-21T09:05:17.270Z,29.905000
2023-07-21T09:10:17.267Z,29.906000
2023-07-21T09:15:17.149Z,29.901000
2023-07-21T09:20:17.296Z,29.902000
2023-07-21T09:25:17.242Z,29.900000
2023-07-21T09:30:17.206Z,29.897000
2023-07-21T09:35:17.281Z,29.896000
2023-07-21T09:40:17.316Z,29.896000
2023-07-21T09:45:17.250Z,29.898000
2023-07-21T09:50:17.290Z,29.900000
2023-07-21T09:55:17.443Z,29.902000
2023-07-21T10:00:17.361Z,29.901000
2023-07-21T10:05:17.363Z,29.898000
2023-07-21T10:10:17.373Z,29.897000
2023-07-21T10:15:17.394Z,29.895000
2023-07-21T10:20:17.430Z,29.891000
2023-07-21T10:25:17.386Z,29.889000
2023-07-21T10:30:17.365Z,29.890000
2023-07-21T10:35:17.648Z,29.886000
2023-07-21T10:40:17.598Z,29.889000
2023-07-21T10:45:15.457Z,29.887000
2023-07-21T10:50:15.495Z,29.884000
2023-07-21T10:55:15.528Z,29.883000
2023-07-21T11:00:15.535Z,29.885000
2023-07-21T11:05:15.501Z,29.882000
2023-07-21T11:10:16.717Z,29.883000
2023-07-21T11:15:15.743Z,29.880000
2023-07-21T11:20:15.529Z,29.881000
2023-07-21T11:25:15.590Z,29.880000
2023-07-21T11:30:15.687Z,29.882000
2023-07-21T11:35:15.587Z,29.879000
2023-07-21T11:40:15.662Z,29.881000
2023-07-21T11:45:15.644Z,29.882000
2023-07-21T11:50:15.599Z,29.885000
2023-07-21T11:55:15.738Z,29.886000
2023-07-21T12:00:15.579Z,29.884000
2023-07-21T12:05:15.541Z,29.886000
2023-07-21T12:10:15.703Z,29.885000
2023-07-21T12:15:15.799Z,29.883000
2023-07-21T12:20:15.764Z,29.884000
2023-07-21T12:25:15.726Z,29.878000
2023-07-21T12:30:15.982Z,29.877000
2023-07-21T12:35:15.651Z,29.880000
2023-07-21T12:40:15.833Z,29.880000
2023-07-21T12:45:15.762Z,29.880000
2023-07-21T12:50:15.755Z,29.879000
2023-07-21T12:55:15.752Z,29.877000
2023-07-21T13:00:15.746Z,29.878000
2023-07-21T13:05:15.748Z,29.880000
2023-07-21T13:10:15.761Z,29.877000
2023-07-21T13:15:15.769Z,29.875000
2023-07-21T13:20:15.824Z,29.874000
2023-07-21T13:25:15.831Z,29.875000
2023-07-21T13:30:15.845Z,29.871000
2023-07-21T13:35:15.857Z,29.868000
2023-07-21T13:40:16.156Z,29.865000
2023-07-21T13:45:16.107Z,29.867000
2023-07-21T13:50:15.837Z,29.872000
2023-07-21T13:55:16.008Z,29.868000
2023-07-21T14:00:15.926Z,29.864000
2023-07-21T14:05:15.836Z,29.858000
2023-07-21T14:10:15.950Z,29.854000
2023-07-21T14:15:16.005Z,29.857000
2023-07-21T14:20:15.891Z,29.849000
2023-07-21T14:25:15.941Z,29.852000
2023-07-21T14:30:15.992Z,29.850000
2023-07-21T14:35:16.106Z,29.844000
2023-07-21T14:40:16.250Z,29.844000
2023-07-21T14:45:16.038Z,29.840000
2023-07-21T14:50:16.028Z,29.841000
2023-07-21T14:55:16.012Z,29.846000
2023-07-21T15:00:16.224Z,29.848000
2023-07-21T15:05:16.010Z,29.851000
2023-07-21T15:10:16.168Z,29.848000
2023-07-21T15:15:16.083Z,29.847000
2023-07-21T15:20:16.227Z,29.844000
2023-07-21T15:25:16.357Z,29.849000
2023-07-21T15:30:16.113Z,29.846000
2023-07-21T15:35:16.193Z,29.842000
2023-07-21T15:40:16.173Z,29.843000
2023-07-21T15:45:16.176Z,29.840000
2023-07-21T15:50:16.307Z,29.842000
2023-07-21T15:55:16.241Z,29.846000
2023-07-21T16:00:17.204Z,29.845000
2023-07-21T16:05:16.246Z,29.844000
2023-07-21T16:10:16.554Z,29.847000
2023-07-21T16:15:16.269Z,29.844000
2023-07-21T16:20:16.249Z,29.846000
2023-07-21T16:25:16.219Z,29.844000
2023-07-21T16:30:16.330Z,29.841000
2023-07-21T16:35:16.379Z,29.846000
2023-07-21T16:40:16.287Z,29.852000
2023-07-21T16:45:16.263Z,29.848000
2023-07-21T16:50:16.535Z,29.842000
2023-07-21T16:55:16.557Z,29.840000
2023-07-21T17:00:16.319Z,29.840000
2023-07-21T17:05:31.262Z,29.841000
2023-07-21T17:10:16.458Z,29.841000
2023-07-21T17:15:16.379Z,29.842000
2023-07-21T17:20:16.412Z,29.838000
2023-07-21T17:25:16.703Z,29.842000
2023-07-21T17:30:16.508Z,29.837000
2023-07-21T17:35:16.565Z,29.833000
2023-07-21T17:40:16.617Z,29.828000
2023-07-21T17:45:16.594Z,29.827000
2023-07-21T17:50:16.456Z,29.831000
2023-07-21T17:55:16.440Z,29.832000
2023-07-21T18:00:16.604Z,29.830000
2023-07-21T18:05:16.366Z,29.829000
2023-07-21T18:10:16.553Z,29.825000
2023-07-21T18:15:16.485Z,29.821000
2023-07-21T18:20:16.475Z,29.820000
2023-07-21T18:25:16.574Z,29.817000
2023-07-21T18:30:16.628Z,29.812000
2023-07-21T18:35:16.578Z,29.812000
2023-07-21T18:40:16.555Z,29.817000
2023-07-21T18:45:16.504Z,29.813000
2023-07-21T18:50:16.578Z,29.816000
2023-07-21T18:55:16.631Z,29.818000
2023-07-21T19:00:16.643Z,29.816000
2023-07-21T19:05:16.765Z,29.815000
2023-07-21T19:10:16.632Z,29.812000
2023-07-21T19:15:16.607Z,29.807000
2023-07-21T19:20:16.603Z,29.805000
2023-07-21T19:25:16.792Z,29.809000
2023-07-21T19:30:16.608Z,29.813000
2023-07-21T19:35:16.639Z,29.818000
2023-07-21T19:40:16.867Z,29.805000
2023-07-21T19:45:16.835Z,29.805000
2023-07-21T19:50:16.704Z,29.802000
2023-07-21T19:55:16.799Z,29.801000
2023-07-21T20:00:16.875Z,29.799000
2023-07-21T20:05:16.589Z,29.794000
2023-07-21T20:10:16.905Z,29.796000
2023-07-21T20:15:16.782Z,29.789000
2023-07-21T20:20:16.787Z,29.790000
2023-07-21T20:25:16.815Z,29.790000
2023-07-21T20:30:16.806Z,29.795000
2023-07-21T20:35:16.777Z,29.800000
2023-07-21T20:40:16.947Z,29.808000
2023-07-21T20:45:16.923Z,29.813000
2023-07-21T20:50:16.872Z,29.807000
2023-07-21T20:55:16.857Z,29.804000
2023-07-21T21:00:16.870Z,29.804000
2023-07-21T21:05:16.893Z,29.801000
2023-07-21T21:10:16.921Z,29.794000
2023-07-21T21:15:16.906Z,29.793000
2023-07-21T21:20:16.892Z,29.792000
2023-07-21T21:25:16.880Z,29.788000
2023-07-21T21:30:16.928Z,29.785000
2023-07-21T21:35:16.958Z,29.789000
2023-07-21T21:40:17.007Z,29.788000
2023-07-21T21:45:16.918Z,29.786000
2023-07-21T21:50:16.991Z,29.785000
2023-07-21T21:55:25.655Z,29.783000
2023-07-21T22:00:17.045Z,29.780000
2023-07-21T22:05:16.961Z,29.782000
2023-07-21T22:10:17.165Z,29.785000
2023-07-21T22:15:17.227Z,29.777000
2023-07-21T22:20:17.030Z,29.780000
2023-07-21T22:25:17.196Z,29.777000
2023-07-21T22:30:17.133Z,29.784000
2023-07-21T22:35:17.056Z,29.787000
2023-07-21T22:40:17.141Z,29.797000
2023-07-21T22:45:17.180Z,29.801000
2023-07-21T22:50:17.093Z,29.819000
2023-07-21T22:55:17.172Z,29.823000
2023-07-21T23:00:17.230Z,29.839000
2023-07-21T23:05:17.318Z,29.846000
2023-07-21T23:10:17.135Z,29.850000
2023-07-21T23:15:17.264Z,29.846000
2023-07-21T23:20:17.238Z,29.845000
2023-07-21T23:25:17.161Z,29.843000
2023-07-21T23:30:17.208Z,29.840000
2023-07-21T23:35:17.270Z,29.831000
2023-07-21T23:40:17.410Z,29.826000
2023-07-21T23:45:17.325Z,29.804000
2023-07-21T23:50:17.321Z,29.805000
2023-07-21T23:55:17.263Z,29.800000
